sensor_id;sensor_type;location;lat;lon;timestamp;temperature;humidity
37052;DHT22;22964;52.272;13.356;2023-02-10T00:01:40;4.20;59.50
37052;DHT22;22964;52.272;13.356;2023-02-10T00:04:05;4.20;59.40
37052;DHT22;22964;52.272;13.356;2023-02-10T00:06:32;4.20;59.40
37052;DHT22;22964;52.272;13.356;2023-02-10T00:08:59;4.30;59.40
37052;DHT22;22964;52.272;13.356;2023-02-10T00:11:26;4.30;59.40
37052;DHT22;22964;52.272;13.356;2023-02-10T00:14:13;4.30;59.40
37052;DHT22;22964;52.272;13.356;2023-02-10T00:16:39;4.30;59.40
37052;DHT22;22964;52.272;13.356;2023-02-10T00:19:05;4.40;59.50
37052;DHT22;22964;52.272;13.356;2023-02-10T00:21:31;4.40;59.50
37052;DHT22;22964;52.272;13.356;2023-02-10T00:23:56;4.40;59.60
37052;DHT22;22964;52.272;13.356;2023-02-10T00:26:22;4.40;59.60
37052;DHT22;22964;52.272;13.356;2023-02-10T00:28:48;4.40;59.60
37052;DHT22;22964;52.272;13.356;2023-02-10T00:31:15;4.40;59.60
37052;DHT22;22964;52.272;13.356;2023-02-10T00:33:45;4.50;59.70
37052;DHT22;22964;52.272;13.356;2023-02-10T00:36:12;4.40;59.60
37052;DHT22;22964;52.272;13.356;2023-02-10T00:38:39;4.50;59.60
37052;DHT22;22964;52.272;13.356;2023-02-10T00:41:08;4.50;59.60
37052;DHT22;22964;52.272;13.356;2023-02-10T00:43:35;4.40;59.50
37052;DHT22;22964;52.272;13.356;2023-02-10T00:46:02;4.50;59.50
37052;DHT22;22964;52.272;13.356;2023-02-10T00:48:28;4.50;59.60
37052;DHT22;22964;52.272;13.356;2023-02-10T00:50:54;4.50;59.60
37052;DHT22;22964;52.272;13.356;2023-02-10T00:53:20;4.50;59.60
37052;DHT22;22964;52.272;13.356;2023-02-10T00:55:45;4.50;59.60
37052;DHT22;22964;52.272;13.356;2023-02-10T00:58:11;4.50;59.50
37052;DHT22;22964;52.272;13.356;2023-02-10T01:00:37;4.60;59.60
37052;DHT22;22964;52.272;13.356;2023-02-10T01:03:02;4.60;59.60
37052;DHT22;22964;52.272;13.356;2023-02-10T01:05:28;4.60;59.50
37052;DHT22;22964;52.272;13.356;2023-02-10T01:07:54;4.60;59.50
37052;DHT22;22964;52.272;13.356;2023-02-10T01:10:19;4.60;59.40
37052;DHT22;22964;52.272;13.356;2023-02-10T01:12:45;4.70;59.40
37052;DHT22;22964;52.272;13.356;2023-02-10T01:15:11;4.60;60.00
37052;DHT22;22964;52.272;13.356;2023-02-10T01:17:37;4.70;59.40
37052;DHT22;22964;52.272;13.356;2023-02-10T01:20:04;4.70;59.40
37052;DHT22;22964;52.272;13.356;2023-02-10T01:22:32;4.70;59.40
37052;DHT22;22964;52.272;13.356;2023-02-10T01:24:58;4.70;59.40
37052;DHT22;22964;52.272;13.356;2023-02-10T01:27:24;4.70;59.40
37052;DHT22;22964;52.272;13.356;2023-02-10T01:29:49;4.80;59.30
37052;DHT22;22964;52.272;13.356;2023-02-10T01:32:15;4.80;59.30
37052;DHT22;22964;52.272;13.356;2023-02-10T01:34:41;4.80;59.30
37052;DHT22;22964;52.272;13.356;2023-02-10T01:37:06;4.80;59.30
37052;DHT22;22964;52.272;13.356;2023-02-10T01:39:32;4.80;59.30
37052;DHT22;22964;52.272;13.356;2023-02-10T01:42:00;4.80;59.30
37052;DHT22;22964;52.272;13.356;2023-02-10T01:46:52;4.90;59.30
37052;DHT22;22964;52.272;13.356;2023-02-10T01:49:21;4.90;59.30
37052;DHT22;22964;52.272;13.356;2023-02-10T01:51:59;4.90;59.30
37052;DHT22;22964;52.272;13.356;2023-02-10T01:54:33;4.90;59.20
37052;DHT22;22964;52.272;13.356;2023-02-10T01:57:00;4.90;59.10
37052;DHT22;22964;52.272;13.356;2023-02-10T01:59:30;4.90;59.00
37052;DHT22;22964;52.272;13.356;2023-02-10T02:01:57;4.90;59.00
37052;DHT22;22964;52.272;13.356;2023-02-10T02:04:24;4.90;58.90
37052;DHT22;22964;52.272;13.356;2023-02-10T02:06:50;4.90;58.80
37052;DHT22;22964;52.272;13.356;2023-02-10T02:09:17;4.90;58.80
37052;DHT22;22964;52.272;13.356;2023-02-10T02:14:30;4.90;59.00
37052;DHT22;22964;52.272;13.356;2023-02-10T02:36:30;4.80;59.30
37052;DHT22;22964;52.272;13.356;2023-02-10T02:39:00;4.80;59.30
37052;DHT22;22964;52.272;13.356;2023-02-10T02:41:27;4.70;59.20
37052;DHT22;22964;52.272;13.356;2023-02-10T02:43:53;4.70;59.10
37052;DHT22;22964;52.272;13.356;2023-02-10T02:51:50;4.60;59.20
37052;DHT22;22964;52.272;13.356;2023-02-10T02:59:47;4.50;59.20
37052;DHT22;22964;52.272;13.356;2023-02-10T03:02:17;4.40;59.20
37052;DHT22;22964;52.272;13.356;2023-02-10T03:04:48;4.40;59.20
37052;DHT22;22964;52.272;13.356;2023-02-10T03:07:14;4.40;59.20
37052;DHT22;22964;52.272;13.356;2023-02-10T03:09:40;4.30;59.30
37052;DHT22;22964;52.272;13.356;2023-02-10T03:12:07;4.30;59.40
37052;DHT22;22964;52.272;13.356;2023-02-10T03:14:32;4.30;59.60
37052;DHT22;22964;52.272;13.356;2023-02-10T03:16:58;4.20;59.60
37052;DHT22;22964;52.272;13.356;2023-02-10T03:19:24;4.20;59.60
37052;DHT22;22964;52.272;13.356;2023-02-10T03:21:50;4.20;59.70
37052;DHT22;22964;52.272;13.356;2023-02-10T03:24:16;4.10;59.60
37052;DHT22;22964;52.272;13.356;2023-02-10T03:26:42;4.10;60.20
37052;DHT22;22964;52.272;13.356;2023-02-10T03:29:10;4.10;59.70
37052;DHT22;22964;52.272;13.356;2023-02-10T03:31:36;4.00;59.70
37052;DHT22;22964;52.272;13.356;2023-02-10T03:34:01;4.00;59.70
37052;DHT22;22964;52.272;13.356;2023-02-10T03:36:27;4.00;59.90
37052;DHT22;22964;52.272;13.356;2023-02-10T03:38:53;3.90;59.90
37052;DHT22;22964;52.272;13.356;2023-02-10T03:41:19;3.90;60.00
37052;DHT22;22964;52.272;13.356;2023-02-10T03:43:44;3.90;60.10
37052;DHT22;22964;52.272;13.356;2023-02-10T03:46:11;3.90;60.10
37052;DHT22;22964;52.272;13.356;2023-02-10T03:48:37;3.80;60.20
37052;DHT22;22964;52.272;13.356;2023-02-10T03:51:04;3.80;60.30
37052;DHT22;22964;52.272;13.356;2023-02-10T03:53:31;3.80;60.40
37052;DHT22;22964;52.272;13.356;2023-02-10T03:55:57;3.80;60.60
37052;DHT22;22964;52.272;13.356;2023-02-10T03:58:23;3.80;60.60
37052;DHT22;22964;52.272;13.356;2023-02-10T04:00:49;3.80;60.70
37052;DHT22;22964;52.272;13.356;2023-02-10T04:03:14;3.80;60.80
37052;DHT22;22964;52.272;13.356;2023-02-10T04:05:40;3.70;60.80
37052;DHT22;22964;52.272;13.356;2023-02-10T04:08:06;3.80;61.10
37052;DHT22;22964;52.272;13.356;2023-02-10T04:10:32;3.70;61.00
37052;DHT22;22964;52.272;13.356;2023-02-10T04:12:58;3.70;61.10
37052;DHT22;22964;52.272;13.356;2023-02-10T04:15:24;3.70;61.50
37052;DHT22;22964;52.272;13.356;2023-02-10T04:17:49;3.70;61.70
37052;DHT22;22964;52.272;13.356;2023-02-10T04:20:15;3.70;61.70
37052;DHT22;22964;52.272;13.356;2023-02-10T04:22:41;3.70;61.80
37052;DHT22;22964;52.272;13.356;2023-02-10T04:25:07;3.70;61.70
37052;DHT22;22964;52.272;13.356;2023-02-10T04:27:34;3.70;61.80
37052;DHT22;22964;52.272;13.356;2023-02-10T04:29:59;3.70;61.80
37052;DHT22;22964;52.272;13.356;2023-02-10T04:32:25;3.70;61.70
37052;DHT22;22964;52.272;13.356;2023-02-10T04:34:51;3.70;62.00
37052;DHT22;22964;52.272;13.356;2023-02-10T04:37:17;3.70;62.10
37052;DHT22;22964;52.272;13.356;2023-02-10T04:39:43;3.70;62.20
37052;DHT22;22964;52.272;13.356;2023-02-10T04:42:09;3.70;62.30
37052;DHT22;22964;52.272;13.356;2023-02-10T04:44:34;3.70;62.40
37052;DHT22;22964;52.272;13.356;2023-02-10T04:47:00;3.70;62.60
37052;DHT22;22964;52.272;13.356;2023-02-10T04:49:26;3.70;62.70
37052;DHT22;22964;52.272;13.356;2023-02-10T04:51:53;3.70;62.90
37052;DHT22;22964;52.272;13.356;2023-02-10T04:54:19;3.70;63.10
37052;DHT22;22964;52.272;13.356;2023-02-10T04:56:45;3.70;63.30
37052;DHT22;22964;52.272;13.356;2023-02-10T04:59:12;3.70;63.20
37052;DHT22;22964;52.272;13.356;2023-02-10T05:01:37;3.80;63.50
37052;DHT22;22964;52.272;13.356;2023-02-10T05:04:03;3.80;63.40
37052;DHT22;22964;52.272;13.356;2023-02-10T05:06:29;3.80;63.50
37052;DHT22;22964;52.272;13.356;2023-02-10T05:08:55;3.80;63.50
37052;DHT22;22964;52.272;13.356;2023-02-10T05:11:21;3.80;63.80
37052;DHT22;22964;52.272;13.356;2023-02-10T05:13:47;3.80;64.00
37052;DHT22;22964;52.272;13.356;2023-02-10T05:16:13;3.80;64.10
37052;DHT22;22964;52.272;13.356;2023-02-10T05:18:39;3.90;64.20
37052;DHT22;22964;52.272;13.356;2023-02-10T05:21:06;3.90;64.40
37052;DHT22;22964;52.272;13.356;2023-02-10T05:23:35;3.90;64.80
37052;DHT22;22964;52.272;13.356;2023-02-10T05:26:01;4.00;64.80
37052;DHT22;22964;52.272;13.356;2023-02-10T05:28:27;4.10;65.10
37052;DHT22;22964;52.272;13.356;2023-02-10T05:30:53;4.10;65.10
37052;DHT22;22964;52.272;13.356;2023-02-10T05:33:19;4.10;66.00
37052;DHT22;22964;52.272;13.356;2023-02-10T05:35:45;4.20;65.20
37052;DHT22;22964;52.272;13.356;2023-02-10T05:38:11;4.20;65.20
37052;DHT22;22964;52.272;13.356;2023-02-10T05:40:37;4.20;65.10
37052;DHT22;22964;52.272;13.356;2023-02-10T05:43:03;4.30;65.00
37052;DHT22;22964;52.272;13.356;2023-02-10T05:45:28;4.30;65.00
37052;DHT22;22964;52.272;13.356;2023-02-10T05:47:54;4.30;65.80
37052;DHT22;22964;52.272;13.356;2023-02-10T05:50:20;4.40;64.90
37052;DHT22;22964;52.272;13.356;2023-02-10T05:52:45;4.40;65.00
37052;DHT22;22964;52.272;13.356;2023-02-10T05:55:11;4.50;64.80
37052;DHT22;22964;52.272;13.356;2023-02-10T05:57:37;4.50;64.80
37052;DHT22;22964;52.272;13.356;2023-02-10T06:00:04;4.50;64.80
37052;DHT22;22964;52.272;13.356;2023-02-10T06:02:37;4.60;64.80
37052;DHT22;22964;52.272;13.356;2023-02-10T06:05:03;4.60;64.80
37052;DHT22;22964;52.272;13.356;2023-02-10T06:07:29;4.60;64.70
37052;DHT22;22964;52.272;13.356;2023-02-10T06:09:54;4.70;64.60
37052;DHT22;22964;52.272;13.356;2023-02-10T06:12:20;4.70;64.50
37052;DHT22;22964;52.272;13.356;2023-02-10T06:14:46;4.70;64.40
37052;DHT22;22964;52.272;13.356;2023-02-10T06:17:11;4.70;64.30
37052;DHT22;22964;52.272;13.356;2023-02-10T06:19:38;4.70;64.30
37052;DHT22;22964;52.272;13.356;2023-02-10T06:22:05;4.70;64.30
37052;DHT22;22964;52.272;13.356;2023-02-10T06:24:31;4.70;64.10
37052;DHT22;22964;52.272;13.356;2023-02-10T06:26:57;4.70;64.10
37052;DHT22;22964;52.272;13.356;2023-02-10T06:29:23;4.80;64.30
37052;DHT22;22964;52.272;13.356;2023-02-10T06:31:49;4.70;64.20
37052;DHT22;22964;52.272;13.356;2023-02-10T06:34:15;4.70;64.20
37052;DHT22;22964;52.272;13.356;2023-02-10T06:36:40;4.70;64.20
37052;DHT22;22964;52.272;13.356;2023-02-10T06:39:06;4.70;64.20
37052;DHT22;22964;52.272;13.356;2023-02-10T06:41:32;4.70;64.20
37052;DHT22;22964;52.272;13.356;2023-02-10T06:43:58;4.70;64.10
37052;DHT22;22964;52.272;13.356;2023-02-10T06:46:24;4.70;64.20
37052;DHT22;22964;52.272;13.356;2023-02-10T06:48:50;4.70;64.30
37052;DHT22;22964;52.272;13.356;2023-02-10T06:51:16;4.70;64.40
37052;DHT22;22964;52.272;13.356;2023-02-10T06:53:41;4.70;64.60
37052;DHT22;22964;52.272;13.356;2023-02-10T06:56:08;4.70;64.50
37052;DHT22;22964;52.272;13.356;2023-02-10T06:58:34;4.70;64.60
37052;DHT22;22964;52.272;13.356;2023-02-10T07:01:00;4.70;64.70
37052;DHT22;22964;52.272;13.356;2023-02-10T07:03:27;4.70;64.50
37052;DHT22;22964;52.272;13.356;2023-02-10T07:05:52;4.70;64.70
37052;DHT22;22964;52.272;13.356;2023-02-10T07:08:18;4.70;64.70
37052;DHT22;22964;52.272;13.356;2023-02-10T07:10:44;4.70;64.90
37052;DHT22;22964;52.272;13.356;2023-02-10T07:13:10;4.70;65.10
37052;DHT22;22964;52.272;13.356;2023-02-10T07:15:35;4.70;65.10
37052;DHT22;22964;52.272;13.356;2023-02-10T07:18:01;4.70;65.20
37052;DHT22;22964;52.272;13.356;2023-02-10T07:20:27;4.60;65.20
37052;DHT22;22964;52.272;13.356;2023-02-10T07:22:53;4.70;65.30
37052;DHT22;22964;52.272;13.356;2023-02-10T07:25:19;4.70;65.40
37052;DHT22;22964;52.272;13.356;2023-02-10T07:27:44;4.70;65.70
37052;DHT22;22964;52.272;13.356;2023-02-10T07:30:11;4.70;65.80
37052;DHT22;22964;52.272;13.356;2023-02-10T07:32:37;4.80;66.00
37052;DHT22;22964;52.272;13.356;2023-02-10T07:35:03;4.70;66.00
37052;DHT22;22964;52.272;13.356;2023-02-10T07:37:29;4.80;66.00
37052;DHT22;22964;52.272;13.356;2023-02-10T07:39:55;4.80;66.10
37052;DHT22;22964;52.272;13.356;2023-02-10T07:42:21;4.80;66.20
37052;DHT22;22964;52.272;13.356;2023-02-10T07:45:17;4.90;66.50
37052;DHT22;22964;52.272;13.356;2023-02-10T07:47:43;4.90;66.50
37052;DHT22;22964;52.272;13.356;2023-02-10T07:50:09;4.90;66.70
37052;DHT22;22964;52.272;13.356;2023-02-10T07:52:34;5.00;66.80
37052;DHT22;22964;52.272;13.356;2023-02-10T07:55:00;5.00;66.80
37052;DHT22;22964;52.272;13.356;2023-02-10T07:57:28;5.10;67.00
37052;DHT22;22964;52.272;13.356;2023-02-10T07:59:54;5.10;67.10
37052;DHT22;22964;52.272;13.356;2023-02-10T08:02:19;5.20;67.30
37052;DHT22;22964;52.272;13.356;2023-02-10T08:04:45;5.20;67.40
37052;DHT22;22964;52.272;13.356;2023-02-10T08:07:11;5.30;67.70
37052;DHT22;22964;52.272;13.356;2023-02-10T08:09:37;5.40;68.00
37052;DHT22;22964;52.272;13.356;2023-02-10T08:12:03;5.50;68.10
37052;DHT22;22964;52.272;13.356;2023-02-10T08:14:29;5.50;68.30
37052;DHT22;22964;52.272;13.356;2023-02-10T08:16:54;5.60;68.60
37052;DHT22;22964;52.272;13.356;2023-02-10T08:19:20;5.70;69.60
37052;DHT22;22964;52.272;13.356;2023-02-10T08:21:46;5.80;68.90
37052;DHT22;22964;52.272;13.356;2023-02-10T08:24:12;6.00;68.80
37052;DHT22;22964;52.272;13.356;2023-02-10T08:26:37;6.10;69.80
37052;DHT22;22964;52.272;13.356;2023-02-10T08:29:04;6.20;68.70
37052;DHT22;22964;52.272;13.356;2023-02-10T08:31:30;6.30;68.60
37052;DHT22;22964;52.272;13.356;2023-02-10T08:33:56;6.40;68.40
37052;DHT22;22964;52.272;13.356;2023-02-10T08:36:21;6.50;68.20
37052;DHT22;22964;52.272;13.356;2023-02-10T08:38:48;6.60;68.10
37052;DHT22;22964;52.272;13.356;2023-02-10T08:41:15;6.80;68.00
37052;DHT22;22964;52.272;13.356;2023-02-10T08:43:41;6.80;67.90
37052;DHT22;22964;52.272;13.356;2023-02-10T08:46:07;7.00;67.80
37052;DHT22;22964;52.272;13.356;2023-02-10T08:48:33;7.00;67.70
37052;DHT22;22964;52.272;13.356;2023-02-10T08:50:59;7.10;67.50
37052;DHT22;22964;52.272;13.356;2023-02-10T08:53:25;7.30;67.40
37052;DHT22;22964;52.272;13.356;2023-02-10T08:56:05;7.40;67.20
37052;DHT22;22964;52.272;13.356;2023-02-10T08:58:32;7.50;67.10
37052;DHT22;22964;52.272;13.356;2023-02-10T09:00:58;7.50;66.50
37052;DHT22;22964;52.272;13.356;2023-02-10T09:03:24;7.70;66.40
37052;DHT22;22964;52.272;13.356;2023-02-10T09:05:52;7.80;66.50
37052;DHT22;22964;52.272;13.356;2023-02-10T09:08:18;7.80;66.20
37052;DHT22;22964;52.272;13.356;2023-02-10T09:10:45;7.80;66.10
37052;DHT22;22964;52.272;13.356;2023-02-10T09:13:11;7.90;66.00
37052;DHT22;22964;52.272;13.356;2023-02-10T09:15:38;8.00;65.90
37052;DHT22;22964;52.272;13.356;2023-02-10T09:18:05;8.00;65.60
37052;DHT22;22964;52.272;13.356;2023-02-10T09:20:31;8.10;65.40
37052;DHT22;22964;52.272;13.356;2023-02-10T09:22:57;8.10;65.30
37052;DHT22;22964;52.272;13.356;2023-02-10T09:25:23;8.20;65.40
37052;DHT22;22964;52.272;13.356;2023-02-10T09:27:51;8.20;65.20
37052;DHT22;22964;52.272;13.356;2023-02-10T09:30:17;8.30;65.20
37052;DHT22;22964;52.272;13.356;2023-02-10T09:32:43;8.40;65.10
37052;DHT22;22964;52.272;13.356;2023-02-10T09:35:08;8.40;65.00
37052;DHT22;22964;52.272;13.356;2023-02-10T09:37:34;8.40;65.00
37052;DHT22;22964;52.272;13.356;2023-02-10T09:40:00;8.50;65.10
37052;DHT22;22964;52.272;13.356;2023-02-10T09:45:21;8.60;65.00
37052;DHT22;22964;52.272;13.356;2023-02-10T09:47:51;8.60;64.80
37052;DHT22;22964;52.272;13.356;2023-02-10T09:50:48;8.70;64.80
37052;DHT22;22964;52.272;13.356;2023-02-10T09:53:21;8.70;64.60
37052;DHT22;22964;52.272;13.356;2023-02-10T10:01:13;8.90;64.60
37052;DHT22;22964;52.272;13.356;2023-02-10T10:03:49;9.00;64.50
37052;DHT22;22964;52.272;13.356;2023-02-10T10:06:29;9.00;64.20
37052;DHT22;22964;52.272;13.356;2023-02-10T10:09:08;9.10;64.10
37052;DHT22;22964;52.272;13.356;2023-02-10T10:11:50;9.10;63.90
37052;DHT22;22964;52.272;13.356;2023-02-10T10:14:25;9.10;63.70
37052;DHT22;22964;52.272;13.356;2023-02-10T10:31:04;9.30;63.50
37052;DHT22;22964;52.272;13.356;2023-02-10T10:33:52;9.30;63.40
37052;DHT22;22964;52.272;13.356;2023-02-10T10:36:29;9.30;63.30
37052;DHT22;22964;52.272;13.356;2023-02-10T10:41:38;9.40;63.10
37052;DHT22;22964;52.272;13.356;2023-02-10T10:44:04;9.40;63.00
37052;DHT22;22964;52.272;13.356;2023-02-10T10:46:33;9.40;62.90
37052;DHT22;22964;52.272;13.356;2023-02-10T10:49:00;9.40;63.10
37052;DHT22;22964;52.272;13.356;2023-02-10T10:51:26;9.40;63.10
37052;DHT22;22964;52.272;13.356;2023-02-10T10:53:54;9.40;63.30
37052;DHT22;22964;52.272;13.356;2023-02-10T10:56:56;9.40;63.60
37052;DHT22;22964;52.272;13.356;2023-02-10T10:59:25;9.50;63.60
37052;DHT22;22964;52.272;13.356;2023-02-10T11:01:53;9.50;63.80
37052;DHT22;22964;52.272;13.356;2023-02-10T11:04:21;9.60;63.60
37052;DHT22;22964;52.272;13.356;2023-02-10T11:06:52;9.70;63.30
37052;DHT22;22964;52.272;13.356;2023-02-10T11:09:31;9.80;63.20
37052;DHT22;22964;52.272;13.356;2023-02-10T11:12:05;9.80;63.00
37052;DHT22;22964;52.272;13.356;2023-02-10T11:14:41;9.80;62.50
37052;DHT22;22964;52.272;13.356;2023-02-10T11:17:19;9.90;62.30
37052;DHT22;22964;52.272;13.356;2023-02-10T11:19:55;9.90;62.10
37052;DHT22;22964;52.272;13.356;2023-02-10T11:22:21;10.00;62.20
37052;DHT22;22964;52.272;13.356;2023-02-10T11:24:59;10.00;62.00
37052;DHT22;22964;52.272;13.356;2023-02-10T11:27:25;10.00;61.60
37052;DHT22;22964;52.272;13.356;2023-02-10T11:29:57;10.10;61.60
37052;DHT22;22964;52.272;13.356;2023-02-10T11:32:25;10.10;61.60
37052;DHT22;22964;52.272;13.356;2023-02-10T11:34:54;10.10;61.70
37052;DHT22;22964;52.272;13.356;2023-02-10T11:37:22;10.10;61.60
37052;DHT22;22964;52.272;13.356;2023-02-10T11:39:49;10.10;61.50
37052;DHT22;22964;52.272;13.356;2023-02-10T11:42:21;10.10;61.50
37052;DHT22;22964;52.272;13.356;2023-02-10T11:44:52;10.10;61.30
37052;DHT22;22964;52.272;13.356;2023-02-10T11:47:18;10.10;61.40
37052;DHT22;22964;52.272;13.356;2023-02-10T11:49:45;10.10;61.30
37052;DHT22;22964;52.272;13.356;2023-02-10T11:52:12;10.20;61.40
37052;DHT22;22964;52.272;13.356;2023-02-10T11:54:39;10.20;61.50
37052;DHT22;22964;52.272;13.356;2023-02-10T12:05:42;10.40;61.80
37052;DHT22;22964;52.272;13.356;2023-02-10T12:13:41;10.70;61.20
37052;DHT22;22964;52.272;13.356;2023-02-10T12:16:25;10.80;61.00
37052;DHT22;22964;52.272;13.356;2023-02-10T12:19:03;10.90;60.70
37052;DHT22;22964;52.272;13.356;2023-02-10T12:26:43;11.10;60.40
37052;DHT22;22964;52.272;13.356;2023-02-10T12:29:41;11.10;60.30
37052;DHT22;22964;52.272;13.356;2023-02-10T12:46:42;11.40;59.10
37052;DHT22;22964;52.272;13.356;2023-02-10T12:49:34;11.40;58.90
37052;DHT22;22964;52.272;13.356;2023-02-10T12:52:11;11.50;58.50
37052;DHT22;22964;52.272;13.356;2023-02-10T12:54:52;11.50;58.80
37052;DHT22;22964;52.272;13.356;2023-02-10T13:05:20;11.40;58.30
37052;DHT22;22964;52.272;13.356;2023-02-10T13:07:53;11.30;58.10
37052;DHT22;22964;52.272;13.356;2023-02-10T13:10:44;11.30;58.30
37052;DHT22;22964;52.272;13.356;2023-02-10T13:13:19;11.30;58.50
37052;DHT22;22964;52.272;13.356;2023-02-10T13:18:23;11.30;58.40
37052;DHT22;22964;52.272;13.356;2023-02-10T13:21:24;11.20;58.30
37052;DHT22;22964;52.272;13.356;2023-02-10T13:24:06;11.20;58.30
37052;DHT22;22964;52.272;13.356;2023-02-10T13:32:35;11.20;58.50
37052;DHT22;22964;52.272;13.356;2023-02-10T13:35:07;11.10;58.30
37052;DHT22;22964;52.272;13.356;2023-02-10T13:37:40;11.10;58.50
37052;DHT22;22964;52.272;13.356;2023-02-10T13:40:28;11.10;58.60
37052;DHT22;22964;52.272;13.356;2023-02-10T13:42:56;11.10;58.50
37052;DHT22;22964;52.272;13.356;2023-02-10T13:45:31;11.10;58.70
37052;DHT22;22964;52.272;13.356;2023-02-10T13:48:25;11.00;58.70
37052;DHT22;22964;52.272;13.356;2023-02-10T13:51:07;11.00;58.70
37052;DHT22;22964;52.272;13.356;2023-02-10T14:01:39;11.00;59.00
37052;DHT22;22964;52.272;13.356;2023-02-10T14:04:42;11.00;58.80
37052;DHT22;22964;52.272;13.356;2023-02-10T14:07:28;11.00;58.70
37052;DHT22;22964;52.272;13.356;2023-02-10T14:13:00;11.00;58.50
37052;DHT22;22964;52.272;13.356;2023-02-10T14:15:36;10.90;58.50
37052;DHT22;22964;52.272;13.356;2023-02-10T14:18:25;10.90;58.50
37052;DHT22;22964;52.272;13.356;2023-02-10T14:21:15;10.90;58.60
37052;DHT22;22964;52.272;13.356;2023-02-10T14:23:49;10.90;58.70
37052;DHT22;22964;52.272;13.356;2023-02-10T14:26:20;10.80;58.60
37052;DHT22;22964;52.272;13.356;2023-02-10T14:28:49;10.80;58.60
37052;DHT22;22964;52.272;13.356;2023-02-10T14:31:30;10.80;58.80
37052;DHT22;22964;52.272;13.356;2023-02-10T14:34:01;10.70;58.80
37052;DHT22;22964;52.272;13.356;2023-02-10T14:36:27;10.70;58.90
37052;DHT22;22964;52.272;13.356;2023-02-10T14:38:58;10.70;59.00
37052;DHT22;22964;52.272;13.356;2023-02-10T14:41:27;10.70;59.00
37052;DHT22;22964;52.272;13.356;2023-02-10T14:43:53;10.70;59.00
37052;DHT22;22964;52.272;13.356;2023-02-10T14:46:28;10.70;59.00
37052;DHT22;22964;52.272;13.356;2023-02-10T14:49:09;10.70;58.90
37052;DHT22;22964;52.272;13.356;2023-02-10T14:51:40;10.70;58.80
37052;DHT22;22964;52.272;13.356;2023-02-10T14:54:17;10.70;58.90
37052;DHT22;22964;52.272;13.356;2023-02-10T14:56:57;10.70;58.90
37052;DHT22;22964;52.272;13.356;2023-02-10T14:59:25;10.60;59.00
37052;DHT22;22964;52.272;13.356;2023-02-10T15:01:54;10.60;58.80
37052;DHT22;22964;52.272;13.356;2023-02-10T15:04:21;10.50;58.80
37052;DHT22;22964;52.272;13.356;2023-02-10T15:06:53;10.50;58.80
37052;DHT22;22964;52.272;13.356;2023-02-10T15:09:24;10.50;58.80
37052;DHT22;22964;52.272;13.356;2023-02-10T15:11:59;10.40;58.70
37052;DHT22;22964;52.272;13.356;2023-02-10T15:15:49;10.40;58.80
37052;DHT22;22964;52.272;13.356;2023-02-10T15:17:46;10.30;58.80
37052;DHT22;22964;52.272;13.356;2023-02-10T15:33:26;10.00;59.20
37052;DHT22;22964;52.272;13.356;2023-02-10T15:36:17;10.00;59.20
37052;DHT22;22964;52.272;13.356;2023-02-10T15:39:00;9.90;59.30
37052;DHT22;22964;52.272;13.356;2023-02-10T15:42:19;9.90;59.30
37052;DHT22;22964;52.272;13.356;2023-02-10T15:44:40;9.80;59.30
37052;DHT22;22964;52.272;13.356;2023-02-10T15:49:42;9.70;59.30
37052;DHT22;22964;52.272;13.356;2023-02-10T15:52:16;9.70;59.20
37052;DHT22;22964;52.272;13.356;2023-02-10T15:54:43;9.60;59.20
37052;DHT22;22964;52.272;13.356;2023-02-10T15:57:11;9.50;59.10
37052;DHT22;22964;52.272;13.356;2023-02-10T15:59:37;9.50;59.20
37052;DHT22;22964;52.272;13.356;2023-02-10T16:02:06;9.40;59.30
37052;DHT22;22964;52.272;13.356;2023-02-10T16:04:33;9.30;59.40
37052;DHT22;22964;52.272;13.356;2023-02-10T16:07:01;9.20;59.50
37052;DHT22;22964;52.272;13.356;2023-02-10T16:09:29;9.20;59.60
37052;DHT22;22964;52.272;13.356;2023-02-10T16:11:56;9.10;59.80
37052;DHT22;22964;52.272;13.356;2023-02-10T16:14:21;9.10;60.00
37052;DHT22;22964;52.272;13.356;2023-02-10T16:16:50;9.00;60.10
37052;DHT22;22964;52.272;13.356;2023-02-10T16:19:21;8.90;60.10
37052;DHT22;22964;52.272;13.356;2023-02-10T16:21:48;8.90;60.20
37052;DHT22;22964;52.272;13.356;2023-02-10T16:24:17;8.80;60.30
37052;DHT22;22964;52.272;13.356;2023-02-10T16:26:44;8.80;60.50
37052;DHT22;22964;52.272;13.356;2023-02-10T16:31:40;8.60;60.50
37052;DHT22;22964;52.272;13.356;2023-02-10T16:34:08;8.60;60.60
37052;DHT22;22964;52.272;13.356;2023-02-10T16:36:34;8.60;60.70
37052;DHT22;22964;52.272;13.356;2023-02-10T16:39:00;8.50;60.70
37052;DHT22;22964;52.272;13.356;2023-02-10T16:41:26;8.50;60.90
37052;DHT22;22964;52.272;13.356;2023-02-10T16:43:51;8.40;60.90
37052;DHT22;22964;52.272;13.356;2023-02-10T16:46:17;8.40;61.10
37052;DHT22;22964;52.272;13.356;2023-02-10T16:48:44;8.30;61.10
37052;DHT22;22964;52.272;13.356;2023-02-10T16:51:10;8.30;61.20
37052;DHT22;22964;52.272;13.356;2023-02-10T16:53:36;8.30;61.30
37052;DHT22;22964;52.272;13.356;2023-02-10T16:56:02;8.30;61.30
37052;DHT22;22964;52.272;13.356;2023-02-10T16:58:27;8.20;61.50
37052;DHT22;22964;52.272;13.356;2023-02-10T17:00:53;8.20;61.60
37052;DHT22;22964;52.272;13.356;2023-02-10T17:03:19;8.10;61.70
37052;DHT22;22964;52.272;13.356;2023-02-10T17:05:45;8.10;61.80
37052;DHT22;22964;52.272;13.356;2023-02-10T17:08:11;8.10;61.90
37052;DHT22;22964;52.272;13.356;2023-02-10T17:10:37;8.00;62.00
37052;DHT22;22964;52.272;13.356;2023-02-10T17:13:03;8.00;62.20
37052;DHT22;22964;52.272;13.356;2023-02-10T17:15:29;8.00;62.40
37052;DHT22;22964;52.272;13.356;2023-02-10T17:17:56;7.90;63.40
37052;DHT22;22964;52.272;13.356;2023-02-10T17:20:24;7.90;62.70
37052;DHT22;22964;52.272;13.356;2023-02-10T17:22:50;7.90;62.90
37052;DHT22;22964;52.272;13.356;2023-02-10T17:25:17;7.80;62.90
37052;DHT22;22964;52.272;13.356;2023-02-10T17:27:43;7.80;62.90
37052;DHT22;22964;52.272;13.356;2023-02-10T17:30:13;7.80;63.00
37052;DHT22;22964;52.272;13.356;2023-02-10T17:32:39;7.70;63.20
37052;DHT22;22964;52.272;13.356;2023-02-10T17:35:06;7.70;63.10
37052;DHT22;22964;52.272;13.356;2023-02-10T17:37:32;7.70;63.20
37052;DHT22;22964;52.272;13.356;2023-02-10T17:39:57;7.60;63.30
37052;DHT22;22964;52.272;13.356;2023-02-10T17:42:39;7.60;63.50
37052;DHT22;22964;52.272;13.356;2023-02-10T17:45:04;7.60;63.60
37052;DHT22;22964;52.272;13.356;2023-02-10T17:47:30;7.60;63.80
37052;DHT22;22964;52.272;13.356;2023-02-10T17:49:56;7.60;63.80
37052;DHT22;22964;52.272;13.356;2023-02-10T17:52:21;7.50;63.80
37052;DHT22;22964;52.272;13.356;2023-02-10T17:54:47;7.50;64.00
37052;DHT22;22964;52.272;13.356;2023-02-10T17:57:13;7.50;64.00
37052;DHT22;22964;52.272;13.356;2023-02-10T17:59:41;7.50;64.10